createdAt,value
2018-07-23T00:02:10.992Z,8.33
2018-07-23T00:04:39.926Z,9.27
2018-07-23T00:07:08.828Z,6.63
2018-07-23T00:09:37.730Z,7.63
2018-07-23T00:12:06.640Z,9.93
2018-07-23T00:14:35.545Z,8.63
2018-07-23T00:17:04.454Z,12.37
2018-07-23T00:19:33.353Z,6.53
2018-07-23T00:22:02.239Z,7.83
2018-07-23T00:24:31.118Z,9.67
2018-07-23T00:27:00.040Z,6.60
2018-07-23T00:29:28.935Z,7.17
2018-07-23T00:31:57.847Z,8.73
2018-07-23T00:34:26.767Z,7.63
2018-07-23T00:36:55.690Z,8.70
2018-07-23T00:39:24.555Z,8.10
2018-07-23T00:41:53.473Z,8.20
2018-07-23T00:44:22.370Z,7.63
2018-07-23T00:46:51.265Z,7.37
2018-07-23T00:49:21.448Z,7.00
2018-07-23T00:51:50.353Z,6.30
2018-07-23T00:54:19.237Z,7.13
2018-07-23T00:56:48.122Z,6.83
2018-07-23T00:59:17.197Z,6.50
2018-07-23T01:01:46.071Z,7.40
2018-07-23T01:04:15.029Z,6.40
2018-07-23T01:06:43.929Z,8.43
2018-07-23T01:09:12.835Z,8.93
2018-07-23T01:11:41.736Z,7.70
2018-07-23T01:14:10.635Z,7.43
2018-07-23T01:16:39.548Z,6.67
2018-07-23T01:19:08.465Z,6.67
2018-07-23T01:21:37.372Z,8.70
2018-07-23T01:24:06.336Z,7.07
2018-07-23T01:26:35.228Z,7.53
2018-07-23T01:29:04.125Z,6.47
2018-07-23T01:31:33.040Z,6.73
2018-07-23T01:34:01.957Z,7.93
2018-07-23T01:36:31.949Z,6.77
2018-07-23T01:39:00.880Z,8.83
2018-07-23T01:41:29.808Z,7.33
2018-07-23T01:43:58.775Z,7.33
2018-07-23T01:46:27.699Z,7.70
2018-07-23T01:48:56.587Z,6.50
2018-07-23T01:51:25.531Z,6.63
2018-07-23T01:53:54.421Z,8.67
2018-07-23T01:56:23.322Z,7.57
2018-07-23T01:58:52.213Z,8.17
2018-07-23T02:01:21.121Z,7.47
2018-07-23T02:03:50.014Z,8.40
2018-07-23T02:06:18.894Z,7.43
2018-07-23T02:08:47.844Z,7.93
2018-07-23T02:11:16.749Z,9.53
2018-07-23T02:13:45.638Z,7.87
2018-07-23T02:16:14.576Z,10.57
2018-07-23T02:18:43.515Z,8.80
2018-07-23T02:21:12.411Z,12.37
2018-07-23T02:23:41.302Z,8.07
2018-07-23T02:26:10.217Z,8.80
2018-07-23T02:28:39.135Z,9.70
2018-07-23T02:31:08.090Z,8.83
2018-07-23T02:33:37.019Z,9.17
2018-07-23T02:36:05.948Z,9.70
2018-07-23T02:38:34.851Z,8.70
2018-07-23T02:41:04.189Z,9.13
2018-07-23T02:43:33.070Z,10.40
2018-07-23T02:46:01.981Z,11.40
2018-07-23T02:48:31.418Z,8.07
2018-07-23T02:51:00.310Z,8.67
2018-07-23T02:53:29.198Z,8.73
2018-07-23T02:55:58.093Z,9.17
2018-07-23T02:58:26.992Z,8.80
2018-07-23T03:00:55.894Z,9.83
2018-07-23T03:03:24.808Z,7.73
2018-07-23T03:05:53.726Z,11.43
2018-07-23T03:08:22.639Z,11.50
2018-07-23T03:10:51.687Z,9.07
2018-07-23T03:13:20.575Z,9.80
2018-07-23T03:15:50.136Z,9.77
2018-07-23T03:18:19.084Z,8.43
2018-07-23T03:20:47.978Z,8.47
2018-07-23T03:23:17.358Z,12.03
2018-07-23T03:25:55.298Z,9.37
2018-07-23T03:28:24.196Z,9.47
2018-07-23T03:30:53.100Z,10.17
2018-07-23T03:33:22.006Z,9.73
2018-07-23T03:35:50.919Z,12.23
2018-07-23T03:38:19.802Z,9.63
2018-07-23T03:40:48.726Z,11.07
2018-07-23T03:43:17.610Z,11.73
2018-07-23T03:45:46.509Z,11.97
2018-07-23T03:48:15.429Z,12.07
2018-07-23T03:50:44.318Z,12.13
2018-07-23T03:53:13.194Z,12.57
2018-07-23T03:55:42.113Z,9.90
2018-07-23T03:58:12.112Z,11.60
2018-07-23T04:00:41.119Z,10.20
2018-07-23T04:03:10.058Z,10.87
2018-07-23T04:05:39.005Z,14.27
2018-07-23T04:08:07.901Z,10.33
2018-07-23T04:10:36.810Z,11.03
2018-07-23T04:13:05.721Z,11.87
2018-07-23T04:15:34.659Z,11.03
2018-07-23T04:18:04.421Z,12.90
2018-07-23T04:20:36.178Z,11.47
2018-07-23T04:23:06.097Z,12.37
2018-07-23T04:25:35.102Z,11.23
2018-07-23T04:28:04.012Z,13.17
2018-07-23T04:30:32.931Z,12.63
2018-07-23T04:33:01.827Z,10.63
2018-07-23T04:35:30.729Z,12.37
2018-07-23T04:37:59.680Z,12.00
2018-07-23T04:40:28.612Z,10.27
2018-07-23T04:42:57.540Z,11.80
2018-07-23T04:45:26.433Z,11.07
2018-07-23T04:47:55.337Z,10.33
2018-07-23T04:50:24.261Z,12.20
2018-07-23T04:52:53.185Z,13.70
2018-07-23T04:55:22.277Z,9.83
2018-07-23T04:57:51.211Z,13.10
2018-07-23T05:00:20.125Z,15.43
2018-07-23T05:02:49.037Z,14.57
2018-07-23T05:05:17.941Z,11.93
2018-07-23T05:07:46.849Z,14.87
2018-07-23T05:10:15.806Z,15.07
2018-07-23T05:12:44.736Z,14.30
2018-07-23T05:15:13.606Z,14.10
2018-07-23T05:17:42.547Z,12.63
2018-07-23T05:20:11.483Z,13.77
2018-07-23T05:22:40.430Z,14.30
2018-07-23T05:25:10.530Z,13.53
2018-07-23T05:27:39.475Z,15.60
2018-07-23T05:30:08.419Z,13.83
2018-07-23T05:32:37.379Z,14.43
2018-07-23T05:35:06.278Z,14.77
2018-07-23T05:37:35.211Z,13.27
2018-07-23T05:40:04.165Z,15.40
2018-07-23T05:42:33.059Z,12.40
2018-07-23T05:45:02.101Z,13.60
2018-07-23T05:47:31.027Z,16.97
2018-07-23T05:49:59.926Z,14.50
2018-07-23T05:52:28.860Z,15.13
2018-07-23T05:54:57.764Z,13.80
2018-07-23T05:57:26.669Z,14.97
2018-07-23T05:59:55.721Z,17.67
2018-07-23T06:02:24.646Z,13.63
2018-07-23T06:04:53.666Z,14.43
2018-07-23T06:07:22.561Z,13.90
2018-07-23T06:09:51.485Z,15.10
2018-07-23T06:12:20.455Z,15.63
2018-07-23T06:14:49.445Z,17.13
2018-07-23T06:17:18.372Z,16.37
2018-07-23T06:19:47.307Z,15.63
2018-07-23T06:22:16.285Z,14.47
2018-07-23T06:24:45.247Z,16.63
2018-07-23T06:49:27.676Z,16.77
2018-07-23T06:51:56.674Z,21.33
2018-07-23T06:54:25.658Z,19.23
2018-07-23T06:56:54.565Z,17.07
2018-07-23T06:59:23.481Z,15.50
2018-07-23T07:01:52.382Z,15.37
2018-07-23T07:04:21.308Z,13.30
2018-07-23T07:06:50.198Z,13.53
2018-07-23T07:09:19.218Z,13.43
2018-07-23T07:11:48.350Z,16.27
2018-07-23T07:14:17.265Z,15.13
2018-07-23T07:16:46.177Z,13.73
2018-07-23T07:19:15.157Z,12.43
2018-07-23T07:21:44.071Z,15.20
2018-07-23T07:24:12.984Z,11.97
2018-07-23T07:26:41.950Z,12.40
2018-07-23T07:29:10.859Z,13.90
2018-07-23T07:31:39.831Z,14.73
2018-07-23T07:34:08.807Z,10.63
2018-07-23T07:36:37.713Z,11.50
2018-07-23T07:39:09.525Z,13.10
2018-07-23T07:41:38.845Z,11.53
2018-07-23T07:44:08.286Z,14.80
2018-07-23T07:46:38.008Z,12.57
2018-07-23T07:49:07.318Z,11.97
2018-07-23T07:51:36.243Z,11.93
2018-07-23T07:54:05.320Z,12.80
2018-07-23T07:56:34.392Z,9.77
2018-07-23T07:59:03.346Z,12.23
2018-07-23T08:01:32.517Z,10.17
2018-07-23T08:04:01.868Z,8.40
2018-07-23T08:06:30.837Z,9.97
2018-07-23T08:08:59.772Z,8.33
2018-07-23T08:11:28.714Z,7.13
2018-07-23T08:13:57.954Z,9.33
2018-07-23T08:16:26.849Z,7.70
2018-07-23T08:18:56.628Z,8.47
2018-07-23T08:21:26.495Z,7.47
2018-07-23T08:23:56.331Z,7.90
2018-07-23T08:26:27.854Z,9.33
2018-07-23T08:28:58.545Z,7.77
2018-07-23T08:31:27.471Z,10.17
2018-07-23T08:33:56.414Z,9.50
2018-07-23T08:36:25.357Z,7.93
2018-07-23T08:38:54.273Z,8.17
2018-07-23T08:41:23.202Z,8.17
2018-07-23T08:43:52.092Z,6.87
2018-07-23T08:46:21.028Z,8.67
2018-07-23T08:48:50.149Z,8.53
2018-07-23T08:51:19.147Z,8.23
2018-07-23T08:53:47.990Z,11.00
2018-07-23T08:56:17.337Z,9.40
2018-07-23T08:58:46.165Z,9.63
2018-07-23T09:01:15.137Z,11.57
2018-07-23T09:03:44.044Z,10.33
2018-07-23T09:06:14.098Z,10.27
2018-07-23T09:08:43.164Z,9.33
2018-07-23T09:11:12.038Z,12.90
2018-07-23T09:13:40.965Z,8.73
2018-07-23T09:16:09.875Z,9.40
2018-07-23T09:18:38.787Z,11.87
2018-07-23T09:21:07.770Z,11.17
2018-07-23T09:23:36.684Z,9.80
2018-07-23T09:26:05.740Z,13.47
2018-07-23T09:28:34.669Z,9.23
2018-07-23T09:31:03.627Z,15.80
2018-07-23T09:33:32.509Z,15.93
2018-07-23T09:36:01.453Z,16.40
2018-07-23T09:38:30.346Z,13.37
2018-07-23T09:40:59.292Z,17.27
2018-07-23T09:43:43.073Z,13.63
2018-07-23T09:46:12.113Z,12.10
2018-07-23T09:48:41.063Z,15.20
2018-07-23T09:51:09.955Z,14.83
2018-07-23T09:53:38.860Z,11.87
2018-07-23T09:56:08.283Z,12.70
2018-07-23T09:58:37.219Z,14.43
2018-07-23T10:01:11.352Z,11.33
2018-07-23T10:03:40.791Z,13.23
2018-07-23T10:06:09.611Z,15.13
2018-07-23T10:08:38.511Z,13.77
2018-07-23T10:11:07.443Z,12.60
2018-07-23T10:13:36.379Z,16.60
2018-07-23T10:16:05.314Z,13.20
2018-07-23T10:18:34.223Z,9.70
2018-07-23T10:21:03.194Z,12.13
2018-07-23T10:23:32.106Z,9.43
2018-07-23T10:26:01.016Z,10.70
2018-07-23T10:28:29.927Z,14.67
2018-07-23T10:30:59.129Z,9.87
2018-07-23T10:33:31.267Z,11.73
2018-07-23T10:36:00.173Z,15.67
2018-07-23T10:38:29.132Z,13.13
2018-07-23T10:40:58.109Z,14.83
2018-07-23T10:43:27.068Z,11.67
2018-07-23T10:45:55.987Z,10.33
2018-07-23T10:48:24.905Z,13.53
2018-07-23T10:50:53.855Z,11.13
2018-07-23T10:53:22.752Z,12.13
2018-07-23T10:55:51.987Z,12.23
2018-07-23T10:58:21.594Z,10.30
2018-07-23T11:00:53.582Z,10.30
2018-07-23T11:03:22.479Z,9.50
2018-07-23T11:05:51.369Z,8.73
2018-07-23T11:08:20.279Z,8.17
2018-07-23T11:10:49.193Z,7.73
2018-07-23T11:13:18.105Z,8.90
2018-07-23T11:15:47.063Z,7.10
2018-07-23T11:18:15.963Z,7.73
2018-07-23T11:20:44.872Z,7.50
2018-07-23T11:23:13.827Z,14.53
2018-07-23T11:25:42.775Z,10.20
2018-07-23T11:28:11.657Z,9.50
2018-07-23T11:30:40.586Z,9.83
2018-07-23T11:33:09.520Z,9.53
2018-07-23T11:35:38.411Z,8.87
2018-07-23T11:38:07.335Z,8.77
2018-07-23T11:40:36.215Z,7.70
2018-07-23T11:43:05.537Z,6.80
2018-07-23T11:45:34.407Z,7.10
2018-07-23T11:48:03.328Z,10.20
2018-07-23T11:50:32.482Z,7.53
2018-07-23T11:53:01.583Z,9.20
2018-07-23T11:55:30.470Z,9.73
2018-07-23T11:57:59.420Z,10.53
2018-07-23T12:00:28.321Z,8.97
2018-07-23T12:02:57.228Z,9.83
2018-07-23T12:05:26.271Z,8.03
2018-07-23T12:07:55.206Z,9.47
2018-07-23T12:10:24.177Z,8.63
2018-07-23T12:12:53.150Z,9.27
2018-07-23T12:15:22.175Z,10.50
2018-07-23T12:17:51.176Z,9.40
2018-07-23T12:20:20.150Z,7.10
2018-07-23T12:22:49.086Z,7.13
2018-07-23T12:25:17.997Z,8.50
2018-07-23T12:27:47.005Z,8.17
2018-07-23T12:30:15.929Z,8.03
2018-07-23T12:32:44.837Z,8.53
2018-07-23T12:35:13.754Z,7.30
2018-07-23T12:37:42.654Z,8.30
2018-07-23T12:40:11.693Z,8.17
2018-07-23T12:42:40.622Z,7.10
2018-07-23T12:45:09.543Z,7.47
2018-07-23T12:47:38.580Z,6.60
2018-07-23T12:50:07.540Z,7.40
2018-07-23T12:52:36.606Z,7.43
2018-07-23T12:55:05.508Z,6.80
2018-07-23T12:57:34.489Z,6.07
2018-07-23T13:00:03.472Z,7.00
2018-07-23T13:02:32.355Z,7.53
2018-07-23T13:27:02.389Z,8.70
2018-07-23T13:29:31.351Z,6.10
2018-07-23T13:32:00.283Z,8.30
2018-07-23T13:34:29.189Z,6.13
2018-07-23T13:36:58.143Z,6.40
2018-07-23T13:39:27.111Z,7.27
2018-07-23T13:44:33.628Z,7.37
2018-07-23T14:03:48.597Z,5.90
2018-07-23T14:31:09.422Z,6.80
2018-07-23T14:33:38.343Z,10.03
2018-07-23T14:52:31.215Z,6.10
2018-07-23T14:55:00.182Z,6.93
2018-07-23T14:57:29.055Z,7.07
2018-07-23T14:59:57.960Z,7.17
2018-07-23T15:02:26.860Z,7.37
2018-07-23T15:04:55.771Z,9.80
2018-07-23T15:07:24.682Z,7.40
2018-07-23T15:20:53.867Z,8.63
2018-07-23T15:23:22.902Z,9.70
2018-07-23T15:25:51.816Z,7.57
2018-07-23T15:36:34.904Z,11.30
2018-07-23T15:58:11.177Z,7.83
2018-07-23T16:00:40.163Z,7.57
2018-07-23T16:03:09.119Z,8.80
2018-07-23T16:05:38.048Z,8.73
2018-07-23T16:08:07.000Z,10.73
2018-07-23T16:10:36.727Z,9.27
2018-07-23T16:13:05.675Z,6.77
2018-07-23T16:15:34.596Z,7.90
2018-07-23T16:18:03.520Z,8.37
2018-07-23T16:20:32.551Z,10.20
2018-07-23T16:23:01.453Z,11.63
2018-07-23T16:25:30.366Z,6.43
2018-07-23T16:27:59.291Z,7.90
2018-07-23T16:30:28.216Z,8.33
2018-07-23T16:32:57.122Z,7.00
2018-07-23T16:35:26.060Z,10.27
2018-07-23T16:37:54.996Z,11.93
2018-07-23T16:40:23.886Z,9.50
2018-07-23T16:42:52.829Z,10.97
2018-07-23T16:45:21.910Z,8.63
2018-07-23T16:47:51.115Z,7.67
2018-07-23T16:50:20.046Z,7.57
2018-07-23T16:52:48.980Z,7.23
2018-07-23T16:55:18.456Z,7.97
2018-07-23T16:57:47.390Z,9.60
2018-07-23T17:00:16.277Z,7.70
2018-07-23T17:02:45.891Z,6.17
2018-07-23T17:05:15.023Z,10.60
2018-07-23T17:07:43.928Z,8.17
2018-07-23T17:10:12.839Z,7.73
2018-07-23T17:12:41.786Z,6.83
2018-07-23T17:15:10.681Z,6.70
2018-07-23T17:17:39.587Z,6.43
2018-07-23T17:20:08.487Z,8.00
2018-07-23T17:22:37.388Z,7.00
2018-07-23T17:25:06.545Z,6.17
2018-07-23T17:27:35.540Z,6.10
2018-07-23T17:30:04.920Z,8.30
2018-07-23T17:32:33.918Z,8.13
2018-07-23T17:35:03.012Z,6.90
2018-07-23T17:37:32.016Z,6.87
2018-07-23T17:40:01.162Z,8.20
2018-07-23T17:42:30.051Z,7.57
2018-07-23T17:44:58.971Z,6.83
2018-07-23T17:47:27.877Z,6.27
2018-07-23T17:49:56.791Z,7.73
2018-07-23T17:52:25.721Z,11.80
2018-07-23T17:54:54.630Z,9.57
2018-07-23T17:57:23.996Z,6.27
2018-07-23T17:59:52.902Z,7.43
2018-07-23T18:02:21.829Z,6.80
2018-07-23T18:04:50.734Z,6.93
2018-07-23T18:07:19.683Z,6.90
2018-07-23T18:09:48.623Z,7.00
2018-07-23T18:12:17.592Z,8.30
2018-07-23T18:14:46.453Z,6.87
2018-07-23T18:17:15.369Z,6.30
2018-07-23T18:19:44.266Z,6.57
2018-07-23T18:22:13.225Z,6.93
2018-07-23T18:24:43.134Z,7.67
2018-07-23T18:27:12.391Z,7.87
2018-07-23T18:29:41.308Z,7.93
2018-07-23T18:32:10.240Z,6.47
2018-07-23T18:34:41.298Z,11.47
2018-07-23T18:37:10.254Z,9.50
2018-07-23T18:39:39.194Z,7.23
2018-07-23T18:42:08.134Z,7.83
2018-07-23T18:44:38.051Z,5.83
2018-07-23T18:47:07.825Z,9.23
2018-07-23T18:49:49.086Z,7.00
2018-07-23T18:52:18.662Z,7.40
2018-07-23T18:54:48.912Z,6.97
2018-07-23T18:57:17.920Z,6.70
2018-07-23T18:59:47.302Z,9.53
2018-07-23T19:02:17.399Z,8.03
2018-07-23T19:04:46.352Z,5.93
2018-07-23T19:07:15.301Z,5.67
2018-07-23T19:09:44.269Z,8.00
2018-07-23T19:12:13.437Z,9.70
2018-07-23T19:14:45.941Z,7.57
2018-07-23T19:17:15.360Z,6.10
2018-07-23T19:19:44.634Z,7.47
2018-07-23T19:22:13.971Z,7.57
2018-07-23T19:24:43.583Z,6.37
2018-07-23T19:27:12.493Z,5.33
2018-07-23T19:29:41.399Z,5.23
2018-07-23T19:32:10.467Z,6.43
2018-07-23T19:34:39.350Z,7.93
2018-07-23T19:37:08.312Z,7.10
2018-07-23T19:39:42.080Z,6.20
2018-07-23T19:42:11.051Z,5.97
2018-07-23T19:44:39.942Z,6.73
2018-07-23T19:47:08.869Z,6.50
2018-07-23T19:49:37.803Z,10.07
2018-07-23T19:52:06.988Z,6.17
2018-07-23T19:54:35.870Z,10.80
2018-07-23T19:57:05.392Z,8.07
2018-07-23T19:59:34.291Z,7.57
2018-07-23T20:02:03.265Z,10.20
2018-07-23T20:04:32.161Z,6.27
2018-07-23T20:07:01.081Z,5.63
2018-07-23T20:09:33.564Z,7.10
2018-07-23T20:12:02.489Z,9.47
2018-07-23T20:14:31.362Z,9.47
2018-07-23T20:17:03.288Z,9.47
2018-07-23T20:19:32.286Z,7.47
2018-07-23T20:22:01.110Z,7.60
2018-07-23T20:24:30.007Z,8.47
2018-07-23T20:26:58.917Z,8.83
2018-07-23T20:29:27.793Z,8.57
2018-07-23T20:31:56.682Z,8.67
2018-07-23T20:34:25.775Z,7.00
2018-07-23T20:36:54.662Z,8.23
2018-07-23T20:39:23.725Z,9.23
2018-07-23T20:41:52.767Z,8.10
2018-07-23T20:44:21.613Z,8.37
2018-07-23T20:46:50.504Z,7.93
2018-07-23T20:49:19.899Z,6.93
2018-07-23T20:51:48.788Z,10.33
2018-07-23T20:54:17.692Z,8.13
2018-07-23T20:56:46.852Z,8.07
2018-07-23T20:59:16.101Z,7.47
2018-07-23T21:01:45.296Z,8.87
2018-07-23T21:04:14.628Z,8.03
2018-07-23T21:06:43.594Z,9.40
2018-07-23T21:09:12.643Z,12.07
2018-07-23T21:11:41.756Z,10.40
2018-07-23T21:14:10.625Z,7.67
2018-07-23T21:16:39.596Z,12.07
2018-07-23T21:19:08.625Z,9.50
2018-07-23T21:21:37.539Z,8.00
2018-07-23T21:24:06.502Z,10.40
2018-07-23T21:26:35.383Z,8.43
2018-07-23T21:29:04.297Z,10.20
2018-07-23T21:31:36.634Z,9.60
2018-07-23T21:34:05.668Z,9.53
2018-07-23T21:36:34.568Z,9.03
2018-07-23T21:39:04.619Z,9.33
2018-07-23T21:41:33.598Z,8.97
2018-07-23T21:44:02.541Z,9.80
2018-07-23T21:46:31.533Z,8.30
2018-07-23T21:49:00.546Z,8.10
2018-07-23T21:51:29.495Z,8.73
2018-07-23T21:53:58.422Z,8.20
2018-07-23T21:56:27.509Z,10.00
2018-07-23T21:58:56.405Z,8.07
2018-07-23T22:01:26.108Z,9.67
2018-07-23T22:03:54.977Z,11.33
2018-07-23T22:06:24.650Z,8.50
2018-07-23T22:08:55.561Z,8.33
2018-07-23T22:11:24.558Z,8.20
2018-07-23T22:13:53.523Z,10.97
2018-07-23T22:16:22.478Z,8.80
2018-07-23T22:18:51.415Z,9.63
2018-07-23T22:21:20.315Z,8.53
2018-07-23T22:23:49.337Z,8.43
2018-07-23T22:26:18.248Z,9.30
2018-07-23T22:28:47.204Z,10.73
2018-07-23T22:31:16.229Z,10.90
2018-07-23T22:33:45.259Z,9.10
2018-07-23T22:36:14.159Z,11.63
2018-07-23T22:38:43.193Z,10.60
2018-07-23T22:41:12.097Z,9.60
2018-07-23T22:43:41.074Z,9.97
2018-07-23T22:46:09.932Z,9.37
2018-07-23T22:48:38.854Z,10.33
2018-07-23T22:51:07.738Z,10.00
2018-07-23T22:53:36.643Z,10.83
2018-07-23T22:56:05.526Z,10.90
2018-07-23T22:58:34.445Z,9.20
2018-07-23T23:01:03.332Z,9.87
2018-07-23T23:03:32.224Z,9.53
2018-07-23T23:06:01.108Z,10.40
2018-07-23T23:08:30.152Z,10.07
2018-07-23T23:10:59.060Z,9.70
2018-07-23T23:13:27.957Z,9.87
2018-07-23T23:15:56.867Z,9.73
2018-07-23T23:18:25.842Z,9.67
2018-07-23T23:20:54.733Z,10.73
2018-07-23T23:23:23.645Z,10.07
2018-07-23T23:25:52.536Z,10.30
2018-07-23T23:28:22.044Z,10.47
2018-07-23T23:30:51.017Z,9.97
2018-07-23T23:33:19.900Z,9.77
2018-07-23T23:35:48.809Z,10.20
2018-07-23T23:38:17.696Z,10.33
2018-07-23T23:40:46.575Z,12.90
2018-07-23T23:43:15.471Z,9.70
2018-07-23T23:45:44.417Z,12.67
2018-07-23T23:48:13.345Z,9.93
2018-07-23T23:50:42.290Z,10.63
2018-07-23T23:53:11.184Z,11.37
2018-07-23T23:55:40.092Z,12.33
2018-07-23T23:58:08.977Z,10.10
